Time;durP1;ratioP1;P1;durP2;ratioP2;P2;SDS_P1;SDS_P2;PMS_P1;PMS_P2;Temp;Humidity;BMP_temperature;BMP_pressure;BME280_temperature;BME280_humidity;BME280_pressure;Samples;Min_cycle;Max_cycle;Signal;HPM_P1;HPM_P2
2023/02/01 00:01:20;;;;;;;10.32;2.47;;;3.70;99.90;;;;;;5104905;28;20028;-60
2023/02/01 00:03:46;;;;;;;12.45;2.95;;;3.80;99.90;;;;;;5082911;28;20037;-62
2023/02/01 00:06:11;;;;;;;17.42;3.13;;;3.80;99.90;;;;;;5100402;28;20124;-62
2023/02/01 00:08:37;;;;;;;11.80;2.45;;;3.90;99.90;;;;;;5086283;28;20032;-62
2023/02/01 00:11:05;;;;;;;21.92;3.58;;;3.90;99.90;;;;;;5086568;28;20493;-62
2023/02/01 00:13:32;;;;;;;19.10;3.63;;;3.90;99.90;;;;;;5079265;28;20123;-62
2023/02/01 00:16:12;;;;;;;19.95;2.92;;;4.00;99.90;;;;;;5093938;28;20579;-62
2023/02/01 00:18:37;;;;;;;11.82;2.30;;;4.00;99.90;;;;;;5070300;28;20052;-61
2023/02/01 00:21:03;;;;;;;19.40;3.60;;;4.00;99.90;;;;;;5104973;28;20055;-62
2023/02/01 00:23:37;;;;;;;18.38;3.40;;;4.10;99.90;;;;;;5086286;28;20040;-62
2023/02/01 00:26:04;;;;;;;19.40;3.97;;;4.10;99.90;;;;;;5077898;28;20028;-62
2023/02/01 00:28:29;;;;;;;15.45;3.03;;;4.10;99.90;;;;;;5085499;28;20032;-61
2023/02/01 00:31:03;;;;;;;17.48;3.10;;;4.10;99.90;;;;;;5084098;28;20048;-62
2023/02/01 00:33:29;;;;;;;17.98;3.42;;;4.10;99.90;;;;;;5067022;28;20032;-61
2023/02/01 00:36:00;;;;;;;16.20;4.00;;;4.10;99.90;;;;;;5095887;28;20555;-61
2023/02/01 00:38:27;;;;;;;17.60;3.13;;;4.10;99.90;;;;;;5087373;28;20074;-62
2023/02/01 00:40:53;;;;;;;16.40;3.33;;;4.10;99.90;;;;;;5087625;28;20134;-61
2023/02/01 00:43:19;;;;;;;14.98;2.65;;;4.10;99.90;;;;;;5104704;28;20042;-61
2023/02/01 00:45:47;;;;;;;11.50;2.70;;;4.00;99.90;;;;;;5087196;28;20242;-62
2023/02/01 00:48:13;;;;;;;19.15;2.85;;;4.00;99.90;;;;;;5085708;28;20555;-61
2023/02/01 00:50:43;;;;;;;16.42;2.63;;;3.90;99.90;;;;;;5106742;28;20065;-61
2023/02/01 00:53:09;;;;;;;18.50;4.18;;;3.90;99.90;;;;;;5067075;28;20144;-62
2023/02/01 00:55:35;;;;;;;14.55;3.30;;;3.80;99.90;;;;;;5087549;28;20032;-61
2023/02/01 00:58:00;;;;;;;19.60;3.38;;;3.80;99.90;;;;;;5079054;28;20032;-62
2023/02/01 01:00:26;;;;;;;15.02;2.85;;;3.70;99.90;;;;;;5105568;28;20039;-61
2023/02/01 01:02:52;;;;;;;20.55;3.08;;;3.70;99.90;;;;;;5085636;28;20028;-62
2023/02/01 01:05:17;;;;;;;16.83;2.70;;;3.70;99.90;;;;;;5093104;28;20075;-61
2023/02/01 01:07:43;;;;;;;16.23;2.75;;;3.80;99.90;;;;;;5104791;28;20027;-62
2023/02/01 01:10:09;;;;;;;16.80;3.25;;;3.90;99.90;;;;;;5086636;28;20077;-61
2023/02/01 01:12:34;;;;;;;17.30;2.80;;;4.00;99.90;;;;;;5076429;28;20036;-62
2023/02/01 01:15:00;;;;;;;20.13;2.80;;;4.10;99.90;;;;;;5104114;28;20547;-62
2023/02/01 01:17:25;;;;;;;23.25;2.88;;;4.20;99.90;;;;;;5072366;28;20028;-62
2023/02/01 01:19:51;;;;;;;9.15;2.00;;;4.20;99.90;;;;;;5089651;28;20031;-62
2023/02/01 01:22:17;;;;;;;13.88;2.20;;;4.30;99.90;;;;;;5092647;28;20443;-62
2023/02/01 01:24:43;;;;;;;9.02;2.58;;;4.40;99.90;;;;;;5105510;28;20035;-62
2023/02/01 01:27:08;;;;;;;16.60;2.50;;;4.40;99.90;;;;;;5086141;28;20028;-62
2023/02/01 01:29:34;;;;;;;8.57;1.70;;;4.50;99.90;;;;;;5103773;28;20093;-62
2023/02/01 01:31:59;;;;;;;16.30;2.40;;;4.50;99.90;;;;;;5094006;28;20487;-61
2023/02/01 01:34:25;;;;;;;16.65;2.78;;;4.50;99.90;;;;;;5085537;28;20031;-61
2023/02/01 01:36:50;;;;;;;14.75;3.50;;;4.50;99.90;;;;;;5089673;28;20131;-62
2023/02/01 01:39:16;;;;;;;12.60;2.50;;;4.50;99.90;;;;;;5105580;28;20453;-61
2023/02/01 01:41:41;;;;;;;18.50;2.60;;;4.50;99.90;;;;;;5089584;28;20066;-61
2023/02/01 01:44:45;;;;;;;10.55;2.58;;;4.40;99.90;;;;;;5078995;28;20048;-62
2023/02/01 01:47:12;;;;;;;14.07;2.10;;;4.40;99.90;;;;;;5080023;28;20130;-61
2023/02/01 01:49:38;;;;;;;12.73;2.53;;;4.40;99.90;;;;;;5094681;28;20024;-62
2023/02/01 01:52:04;;;;;;;13.15;2.20;;;4.30;99.90;;;;;;5103464;28;20175;-61
2023/02/01 01:54:35;;;;;;;17.02;3.55;;;4.30;99.90;;;;;;5082606;28;20037;-62
2023/02/01 01:57:06;;;;;;;12.80;2.30;;;4.10;99.90;;;;;;5081498;28;20039;-61
2023/02/01 01:59:34;;;;;;;12.40;2.85;;;4.10;99.90;;;;;;5074824;28;20036;-61
2023/02/01 02:02:00;;;;;;;9.25;3.50;;;4.10;99.90;;;;;;5104006;28;20027;-62
2023/02/01 02:04:26;;;;;;;13.30;2.70;;;4.00;99.90;;;;;;5090637;28;20035;-62
2023/02/01 02:06:58;;;;;;;17.25;3.72;;;4.00;99.90;;;;;;5098223;28;20032;-62
2023/02/01 02:09:23;;;;;;;12.80;2.13;;;4.00;99.90;;;;;;5080491;28;20063;-62
2023/02/01 02:11:49;;;;;;;9.90;2.50;;;4.00;99.90;;;;;;5095215;28;20055;-62
2023/02/01 02:14:17;;;;;;;14.10;2.83;;;4.10;99.90;;;;;;5110249;28;20033;-62
2023/02/01 02:16:55;;;;;;;9.93;2.17;;;4.10;99.90;;;;;;5093826;28;20196;-62
2023/02/01 02:19:32;;;;;;;15.95;2.33;;;4.20;99.90;;;;;;5108274;28;20035;-62
2023/02/01 02:22:34;;;;;;;12.20;2.17;;;4.20;99.90;;;;;;5083390;28;20388;-61
2023/02/01 02:25:41;;;;;;;15.70;2.72;;;4.30;99.90;;;;;;5087695;28;20028;-61
2023/02/01 02:28:35;;;;;;;9.80;2.20;;;4.30;99.90;;;;;;5067353;28;20359;-62
2023/02/01 02:31:06;;;;;;;17.30;3.17;;;4.30;99.90;;;;;;5072399;28;20025;-61
2023/02/01 02:33:47;;;;;;;19.75;3.47;;;4.40;99.90;;;;;;5069156;28;20033;-61
2023/02/01 02:36:21;;;;;;;14.63;2.80;;;4.40;99.90;;;;;;5083354;28;20024;-61
2023/02/01 02:39:05;;;;;;;17.85;3.80;;;4.40;99.90;;;;;;5107742;28;20475;-62
2023/02/01 02:47:44;;;;;;;14.20;2.95;;;4.30;99.90;;;;;;5091163;28;20473;-62
2023/02/01 03:04:17;;;;;;;16.58;2.90;;;4.00;99.90;;;;;;5092028;28;20031;-62
2023/02/01 03:06:43;;;;;;;16.27;2.85;;;3.90;99.90;;;;;;5098956;28;20024;-62
2023/02/01 03:15:07;;;;;;;20.70;3.05;;;3.90;99.90;;;;;;4986879;28;20081;-60
2023/02/01 03:17:38;;;;;;;12.98;2.75;;;3.90;99.90;;;;;;4970509;28;20022;-60
2023/02/01 03:20:05;;;;;;;12.38;3.78;;;3.90;99.90;;;;;;4994958;28;20057;-61
2023/02/01 03:22:33;;;;;;;16.30;2.97;;;3.90;99.90;;;;;;4994714;28;20073;-61
2023/02/01 03:25:15;;;;;;;16.35;2.92;;;3.90;99.90;;;;;;4969271;28;20031;-61
2023/02/01 03:28:00;;;;;;;23.40;3.60;;;3.90;99.90;;;;;;4981834;28;20035;-58
2023/02/01 03:30:31;;;;;;;13.95;2.67;;;3.90;99.90;;;;;;4981885;28;20044;-58
2023/02/01 03:33:00;;;;;;;14.65;2.67;;;3.90;99.90;;;;;;4982478;28;20490;-58
2023/02/01 03:35:33;;;;;;;15.30;2.75;;;3.90;99.90;;;;;;4989235;28;20031;-59
2023/02/01 03:38:14;;;;;;;20.20;3.63;;;3.90;99.90;;;;;;4987325;28;20048;-58
2023/02/01 03:40:41;;;;;;;13.85;2.60;;;3.90;99.90;;;;;;4990162;28;20081;-59
2023/02/01 03:43:14;;;;;;;13.98;2.35;;;3.90;99.90;;;;;;4980806;28;20409;-56
2023/02/01 03:46:12;;;;;;;18.80;2.95;;;3.80;99.90;;;;;;4971374;28;20042;-59
2023/02/01 03:48:39;;;;;;;14.30;2.17;;;3.80;99.90;;;;;;4981415;28;20022;-58
2023/02/01 03:51:06;;;;;;;10.40;2.33;;;3.80;99.90;;;;;;4990675;28;20120;-59
2023/02/01 03:53:36;;;;;;;22.13;3.65;;;3.90;99.90;;;;;;4987268;28;20026;-58
2023/02/01 03:56:02;;;;;;;20.58;3.03;;;3.80;99.90;;;;;;4990379;28;20022;-59
2023/02/01 03:58:27;;;;;;;16.63;3.08;;;3.80;99.90;;;;;;4977512;28;20074;-58
2023/02/01 04:00:57;;;;;;;20.90;3.00;;;3.80;99.90;;;;;;4989677;28;20046;-59
2023/02/01 04:03:24;;;;;;;15.57;3.20;;;3.80;99.90;;;;;;4978157;28;20039;-59
2023/02/01 04:05:51;;;;;;;15.52;4.03;;;3.80;99.90;;;;;;4990065;28;20100;-59
2023/02/01 04:08:18;;;;;;;13.23;2.50;;;3.80;99.90;;;;;;4979434;28;20375;-59
2023/02/01 04:10:43;;;;;;;16.05;2.63;;;3.80;99.90;;;;;;4995045;28;20285;-59
2023/02/01 04:13:09;;;;;;;12.68;2.63;;;3.80;99.90;;;;;;5009596;28;20374;-56
2023/02/01 04:15:35;;;;;;;21.08;3.17;;;3.90;99.90;;;;;;5048691;28;20227;-60
2023/02/01 04:18:01;;;;;;;14.30;3.67;;;3.80;99.90;;;;;;5023745;28;20079;-58
2023/02/01 04:20:27;;;;;;;23.63;3.35;;;3.80;99.90;;;;;;5029355;28;20095;-59
2023/02/01 04:22:52;;;;;;;17.27;3.03;;;3.90;99.90;;;;;;5046532;28;20033;-59
2023/02/01 04:25:18;;;;;;;23.45;4.20;;;3.90;99.90;;;;;;5047820;28;20025;-58
2023/02/01 04:27:43;;;;;;;20.58;3.25;;;3.90;99.90;;;;;;5026427;28;20366;-58
2023/02/01 04:30:10;;;;;;;22.98;3.50;;;3.90;99.90;;;;;;5029142;28;20061;-59
2023/02/01 04:32:37;;;;;;;23.40;3.88;;;4.00;99.90;;;;;;5046528;28;20032;-59
2023/02/01 04:35:03;;;;;;;16.88;3.00;;;4.10;99.90;;;;;;5047748;28;20108;-59
2023/02/01 04:37:28;;;;;;;13.82;2.80;;;4.10;99.90;;;;;;5027342;28;20041;-59
2023/02/01 04:39:54;;;;;;;16.38;2.83;;;4.10;99.90;;;;;;5027457;28;20449;-58
2023/02/01 04:42:19;;;;;;;20.30;3.05;;;4.10;99.90;;;;;;5046319;28;20021;-57
2023/02/01 04:44:45;;;;;;;22.50;2.80;;;4.10;99.90;;;;;;5048805;28;20025;-59
2023/02/01 04:47:11;;;;;;;12.73;2.80;;;4.20;99.90;;;;;;5027378;28;20256;-59
2023/02/01 04:49:36;;;;;;;20.73;3.58;;;4.20;99.90;;;;;;5029007;28;20100;-59
2023/02/01 04:52:02;;;;;;;16.00;3.80;;;4.20;99.90;;;;;;5046572;28;20167;-59
2023/02/01 04:54:27;;;;;;;11.40;3.08;;;4.20;99.90;;;;;;5046496;28;20500;-58
2023/02/01 04:56:53;;;;;;;17.00;2.65;;;4.30;99.90;;;;;;5029183;28;20022;-59
2023/02/01 04:59:18;;;;;;;13.77;2.55;;;4.30;99.90;;;;;;5027752;28;20463;-60
2023/02/01 05:01:44;;;;;;;15.88;3.42;;;4.30;99.90;;;;;;5047824;28;20110;-57
2023/02/01 05:04:09;;;;;;;17.98;2.88;;;4.30;99.90;;;;;;5044358;28;20021;-58
2023/02/01 05:06:35;;;;;;;17.25;3.13;;;4.30;99.90;;;;;;5029327;28;20056;-57
2023/02/01 05:09:00;;;;;;;17.65;3.55;;;4.40;99.90;;;;;;5030239;28;20152;-55
2023/02/01 05:14:10;;;;;;;17.65;3.20;;;4.40;99.90;;;;;;5043686;28;20534;-58
2023/02/01 05:16:35;;;;;;;17.05;2.97;;;4.40;99.90;;;;;;5029162;28;20072;-59
2023/02/01 05:19:01;;;;;;;12.52;3.33;;;4.40;99.90;;;;;;5026621;28;20063;-60
2023/02/01 05:21:26;;;;;;;15.23;3.30;;;4.40;99.90;;;;;;5047510;28;20032;-58
2023/02/01 05:24:10;;;;;;;16.98;4.22;;;4.50;99.90;;;;;;5041894;28;20032;-59
2023/02/01 05:26:42;;;;;;;18.70;2.83;;;4.50;99.90;;;;;;5028554;28;20494;-58
2023/02/01 05:29:09;;;;;;;17.83;3.25;;;4.50;99.90;;;;;;5029042;28;20296;-58
2023/02/01 05:31:35;;;;;;;17.45;2.70;;;4.60;99.90;;;;;;5047996;28;20025;-58
2023/02/01 05:34:01;;;;;;;16.05;3.20;;;4.60;99.90;;;;;;5042913;28;20044;-59
2023/02/01 05:36:26;;;;;;;12.88;3.25;;;4.70;99.90;;;;;;5028756;28;20389;-58
2023/02/01 05:38:52;;;;;;;19.95;3.60;;;4.70;99.90;;;;;;5029853;28;20108;-58
2023/02/01 05:41:17;;;;;;;15.30;3.85;;;4.70;99.90;;;;;;5047356;28;20021;-58
2023/02/01 05:43:43;;;;;;;14.65;3.45;;;4.80;99.90;;;;;;5040222;28;20299;-56
2023/02/01 05:46:12;;;;;;;11.02;2.83;;;4.80;99.90;;;;;;5028762;28;20499;-58
2023/02/01 05:48:38;;;;;;;15.90;3.20;;;4.80;99.90;;;;;;5033659;28;20102;-58
2023/02/01 05:51:04;;;;;;;14.65;3.08;;;4.90;99.90;;;;;;5047971;28;20025;-58
2023/02/01 05:53:29;;;;;;;12.75;2.70;;;4.90;99.90;;;;;;5038553;28;20529;-58
2023/02/01 05:55:55;;;;;;;15.98;2.67;;;4.90;99.90;;;;;;5028690;28;20121;-59
2023/02/01 05:58:20;;;;;;;14.60;2.80;;;5.00;99.90;;;;;;5045397;28;20079;-58
2023/02/01 06:00:46;;;;;;;16.58;3.35;;;5.00;99.90;;;;;;5028561;28;20033;-57
2023/02/01 06:03:11;;;;;;;12.93;2.25;;;5.10;99.90;;;;;;5045490;28;20079;-56
2023/02/01 06:05:37;;;;;;;21.17;3.72;;;5.10;99.90;;;;;;5028714;28;20044;-58
2023/02/01 06:08:02;;;;;;;12.70;3.00;;;5.10;99.90;;;;;;5045259;28;20033;-59
2023/02/01 06:10:28;;;;;;;18.20;3.58;;;5.10;99.90;;;;;;5026897;28;20365;-58
2023/02/01 06:12:53;;;;;;;16.83;3.45;;;5.10;99.90;;;;;;5044355;28;20040;-59
2023/02/01 06:15:19;;;;;;;20.20;4.22;;;5.10;99.90;;;;;;5048158;28;20048;-58
2023/02/01 06:17:45;;;;;;;15.80;3.03;;;5.10;99.90;;;;;;5026244;28;20522;-58
2023/02/01 06:20:13;;;;;;;16.55;4.22;;;5.20;99.90;;;;;;5024880;28;20033;-58
2023/02/01 06:22:40;;;;;;;20.20;2.75;;;5.20;99.90;;;;;;5045393;28;20048;-58
2023/02/01 06:25:07;;;;;;;15.60;3.05;;;5.20;99.90;;;;;;5047979;28;20013;-57
2023/02/01 06:27:33;;;;;;;16.90;3.50;;;5.20;99.90;;;;;;5026106;28;20033;-59
2023/02/01 06:29:58;;;;;;;15.27;3.28;;;5.20;99.90;;;;;;5027926;28;20030;-56
2023/02/01 06:32:24;;;;;;;14.57;3.15;;;5.20;99.90;;;;;;5044850;28;20139;-58
2023/02/01 06:34:52;;;;;;;17.58;2.58;;;5.20;99.90;;;;;;5035717;28;20294;-58
2023/02/01 06:37:18;;;;;;;11.95;2.92;;;5.20;99.90;;;;;;5047318;28;20025;-57
2023/02/01 06:39:43;;;;;;;14.93;2.97;;;5.20;99.90;;;;;;5026033;28;20041;-57
2023/02/01 06:42:09;;;;;;;18.58;3.20;;;5.30;99.90;;;;;;5049145;28;20033;-57
2023/02/01 06:44:34;;;;;;;16.35;3.22;;;5.20;99.90;;;;;;5029977;28;20076;-58
2023/02/01 06:46:59;;;;;;;15.05;2.85;;;5.20;99.90;;;;;;5031274;28;20381;-57
2023/02/01 06:49:25;;;;;;;15.05;3.58;;;5.20;99.90;;;;;;5045177;28;20277;-55
2023/02/01 06:51:50;;;;;;;20.08;3.33;;;5.20;99.90;;;;;;5049876;28;20021;-56
2023/02/01 06:54:16;;;;;;;14.68;3.22;;;5.10;99.90;;;;;;5035022;28;20053;-56
2023/02/01 06:56:41;;;;;;;13.27;3.20;;;5.10;99.90;;;;;;5048756;28;20100;-54
2023/02/01 06:59:07;;;;;;;13.60;3.00;;;5.10;99.90;;;;;;5028696;28;20049;-56
2023/02/01 07:01:33;;;;;;;15.75;3.22;;;5.10;99.90;;;;;;5030145;28;20029;-58
2023/02/01 07:03:59;;;;;;;13.63;2.85;;;5.00;99.90;;;;;;5029711;28;20025;-55
2023/02/01 07:06:24;;;;;;;17.00;3.22;;;5.00;99.90;;;;;;5049397;28;20025;-58
2023/02/01 07:08:50;;;;;;;15.57;2.95;;;5.00;99.90;;;;;;5045697;28;20777;-58
2023/02/01 07:11:17;;;;;;;12.07;3.03;;;5.00;99.90;;;;;;5030641;28;20104;-59
2023/02/01 07:13:43;;;;;;;22.20;3.53;;;5.00;99.90;;;;;;5031900;28;20064;-57
2023/02/01 07:16:11;;;;;;;13.48;3.15;;;5.00;99.90;;;;;;5049293;28;20083;-56
2023/02/01 07:18:37;;;;;;;12.57;4.03;;;5.00;99.90;;;;;;5031328;28;20100;-57
2023/02/01 07:21:03;;;;;;;17.60;3.80;;;5.00;99.90;;;;;;5049175;28;20467;-58
2023/02/01 07:23:28;;;;;;;12.02;3.17;;;5.00;99.90;;;;;;5041296;28;20056;-58
2023/02/01 07:25:55;;;;;;;14.38;3.75;;;5.00;99.90;;;;;;5028997;28;20033;-58
2023/02/01 07:28:21;;;;;;;15.70;2.83;;;5.00;99.90;;;;;;5034875;28;20056;-61
2023/02/01 07:30:50;;;;;;;11.98;2.42;;;5.00;99.90;;;;;;5047881;28;20060;-61
2023/02/01 07:33:18;;;;;;;15.68;3.72;;;5.00;99.90;;;;;;5040050;28;20029;-61
2023/02/01 07:35:43;;;;;;;18.92;3.53;;;5.00;99.90;;;;;;5028640;28;20057;-61
2023/02/01 07:38:09;;;;;;;10.80;2.60;;;5.00;99.90;;;;;;5035922;28;20064;-60
2023/02/01 07:40:34;;;;;;;11.18;2.35;;;5.00;99.90;;;;;;5048733;28;20041;-61
2023/02/01 07:43:00;;;;;;;11.57;3.05;;;5.00;99.90;;;;;;5028473;28;20443;-61
2023/02/01 07:45:25;;;;;;;18.45;3.72;;;5.00;99.90;;;;;;5048998;28;20043;-61
2023/02/01 07:47:57;;;;;;;14.23;3.20;;;5.00;99.90;;;;;;5037899;28;20056;-61
2023/02/01 07:50:22;;;;;;;12.43;3.53;;;5.00;99.90;;;;;;5042435;28;20034;-61
2023/02/01 07:52:48;;;;;;;11.07;2.75;;;5.00;99.90;;;;;;5038504;28;20044;-60
2023/02/01 07:55:13;;;;;;;11.48;2.42;;;5.00;99.90;;;;;;5038366;28;20111;-61
2023/02/01 07:57:39;;;;;;;10.27;3.20;;;5.00;99.90;;;;;;5033010;28;20021;-61
2023/02/01 08:02:49;;;;;;;18.85;2.92;;;5.10;99.90;;;;;;5032264;28;20159;-61
2023/02/01 08:05:15;;;;;;;12.23;3.22;;;5.10;99.90;;;;;;5030372;28;20482;-61
2023/02/01 08:07:40;;;;;;;16.77;3.83;;;5.20;99.90;;;;;;5047122;28;20029;-61
2023/02/01 08:10:10;;;;;;;9.95;2.53;;;5.20;99.90;;;;;;5050196;28;20048;-61
2023/02/01 08:12:36;;;;;;;14.68;3.00;;;5.30;99.90;;;;;;5041446;28;20048;-61
2023/02/01 08:15:02;;;;;;;12.25;2.67;;;5.30;99.90;;;;;;5049300;28;20044;-61
2023/02/01 08:17:29;;;;;;;14.25;3.20;;;5.20;99.90;;;;;;5034986;28;20156;-59
2023/02/01 08:19:54;;;;;;;10.43;2.33;;;5.20;99.90;;;;;;5046503;28;20522;-61
2023/02/01 08:22:20;;;;;;;13.88;2.88;;;5.20;99.90;;;;;;5028398;28;20068;-60
2023/02/01 08:24:48;;;;;;;13.90;2.90;;;5.10;99.90;;;;;;5048839;28;20029;-61
2023/02/01 08:27:14;;;;;;;10.73;3.13;;;5.10;99.90;;;;;;5026511;28;20031;-61
2023/02/01 08:29:39;;;;;;;13.38;3.42;;;5.00;99.90;;;;;;5048758;28;20108;-61
2023/02/01 08:32:05;;;;;;;8.13;2.42;;;5.00;99.90;;;;;;5026966;28;20402;-61
2023/02/01 08:34:30;;;;;;;8.45;2.30;;;4.90;99.90;;;;;;5048587;28;20492;-61
2023/02/01 08:36:59;;;;;;;9.98;2.47;;;4.90;99.90;;;;;;5027910;28;20061;-60
2023/02/01 08:39:26;;;;;;;10.38;2.47;;;4.80;99.90;;;;;;5029299;28;20105;-61
2023/02/01 08:44:36;;;;;;;9.02;2.30;;;4.80;99.90;;;;;;5049486;28;20562;-61
2023/02/01 08:47:02;;;;;;;7.13;2.33;;;4.70;99.90;;;;;;5027823;28;20064;-61
2023/02/01 08:49:27;;;;;;;5.78;2.05;;;4.70;99.90;;;;;;5048429;28;20025;-61
2023/02/01 08:51:53;;;;;;;6.80;1.80;;;4.60;99.90;;;;;;5027923;28;20037;-61
2023/02/01 08:54:18;;;;;;;7.97;2.38;;;4.60;99.90;;;;;;5029277;28;20108;-61
2023/02/01 08:56:44;;;;;;;7.63;1.98;;;4.60;99.90;;;;;;5046188;28;20031;-61
2023/02/01 08:59:09;;;;;;;5.10;1.90;;;4.60;99.90;;;;;;5048924;28;20112;-61
2023/02/01 09:01:35;;;;;;;7.03;2.63;;;4.50;99.90;;;;;;5027837;28;20681;-61
2023/02/01 09:04:00;;;;;;;8.63;2.20;;;4.50;99.90;;;;;;5028508;28;20029;-61
2023/02/01 09:06:26;;;;;;;7.65;2.00;;;4.50;99.90;;;;;;5044776;28;20037;-61
2023/02/01 09:08:51;;;;;;;7.10;2.00;;;4.50;99.90;;;;;;5049096;28;20025;-61
2023/02/01 09:11:19;;;;;;;3.63;1.80;;;4.50;99.90;;;;;;5027339;28;20030;-61
2023/02/01 09:13:45;;;;;;;3.97;1.73;;;4.50;99.90;;;;;;5028782;28;20048;-61
2023/02/01 09:16:10;;;;;;;4.28;1.55;;;4.50;99.90;;;;;;5046087;28;20025;-60
2023/02/01 09:18:36;;;;;;;6.03;2.30;;;4.50;99.90;;;;;;5048981;28;20082;-60
2023/02/01 09:21:08;;;;;;;3.53;1.52;;;4.50;99.90;;;;;;5029248;28;20550;-60
2023/02/01 09:23:34;;;;;;;3.97;1.60;;;4.50;99.90;;;;;;5029101;28;20034;-60
2023/02/01 09:26:02;;;;;;;8.23;1.77;;;4.60;99.90;;;;;;5047920;28;20029;-60
2023/02/01 09:28:27;;;;;;;5.93;1.77;;;4.60;99.90;;;;;;5046497;28;20658;-61
2023/02/01 09:30:57;;;;;;;5.35;1.70;;;4.60;99.90;;;;;;5029163;28;20104;-61
2023/02/01 09:33:26;;;;;;;5.75;1.60;;;4.70;99.90;;;;;;5027273;28;20026;-64
2023/02/01 09:35:58;;;;;;;4.35;1.30;;;4.70;99.90;;;;;;5048393;28;20029;-64
2023/02/01 09:38:25;;;;;;;3.25;1.40;;;4.80;99.90;;;;;;5046007;28;20060;-64
2023/02/01 09:40:51;;;;;;;5.40;1.70;;;4.80;99.90;;;;;;5028962;28;20091;-64
2023/02/01 09:43:38;;;;;;;5.47;1.52;;;4.90;99.90;;;;;;5027852;28;20038;-64
2023/02/01 09:46:25;;;;;;;2.58;1.33;;;4.90;99.90;;;;;;5028830;28;20040;-64
2023/02/01 09:48:54;;;;;;;3.20;1.23;;;4.90;99.90;;;;;;5028794;28;20068;-64
2023/02/01 09:51:41;;;;;;;6.47;1.77;;;5.00;99.90;;;;;;5046343;28;20041;-64
2023/02/01 09:54:15;;;;;;;5.63;1.23;;;5.00;99.90;;;;;;5048603;28;20053;-64
2023/02/01 09:56:52;;;;;;;3.72;1.20;;;5.00;99.90;;;;;;5026480;28;20068;-64
2023/02/01 09:59:29;;;;;;;4.72;1.38;;;5.00;99.90;;;;;;5028373;28;20029;-63
2023/02/01 10:01:54;;;;;;;6.00;1.42;;;5.00;99.90;;;;;;5026472;28;20037;-64
2023/02/01 10:04:20;;;;;;;4.35;1.20;;;5.00;99.90;;;;;;5027147;28;20021;-64
2023/02/01 10:07:13;;;;;;;4.38;1.27;;;5.00;99.90;;;;;;5023473;28;20084;-64
2023/02/01 10:09:58;;;;;;;4.13;1.10;;;5.10;99.90;;;;;;5047333;28;20024;-64
2023/02/01 10:12:45;;;;;;;3.58;1.30;;;5.10;99.90;;;;;;5026138;28;20075;-64
2023/02/01 10:15:34;;;;;;;3.40;1.17;;;5.20;99.90;;;;;;5047352;28;20029;-64
2023/02/01 10:18:30;;;;;;;5.03;1.00;;;5.30;99.90;;;;;;5045658;28;20488;-64
2023/02/01 10:21:10;;;;;;;4.72;1.17;;;5.30;99.90;;;;;;5031982;28;20443;-64
2023/02/01 10:24:14;;;;;;;3.80;1.52;;;5.40;99.90;;;;;;5032231;28;20045;-64
2023/02/01 10:26:54;;;;;;;3.38;1.00;;;5.40;99.90;;;;;;5049029;28;20071;-64
2023/02/01 10:29:26;;;;;;;7.55;1.35;;;5.40;99.90;;;;;;5052040;28;20018;-64
2023/02/01 10:31:52;;;;;;;5.80;1.63;;;5.40;99.90;;;;;;5030070;28;20396;-64
2023/02/01 10:34:27;;;;;;;6.03;1.17;;;5.40;99.90;;;;;;5030546;28;20025;-63
2023/02/01 10:37:08;;;;;;;1.83;1.10;;;5.40;99.90;;;;;;5049296;28;20024;-64
2023/02/01 10:39:34;;;;;;;4.65;0.98;;;5.40;99.90;;;;;;5051720;28;20064;-64
2023/02/01 10:41:59;;;;;;;4.90;1.00;;;5.50;99.90;;;;;;5030295;28;20504;-64
2023/02/01 10:44:28;;;;;;;4.10;1.10;;;5.50;99.90;;;;;;5031542;28;20385;-64
2023/02/01 10:46:54;;;;;;;3.05;1.05;;;5.50;99.90;;;;;;5047894;28;20021;-64
2023/02/01 10:49:37;;;;;;;2.42;1.40;;;5.50;99.90;;;;;;5051727;28;20028;-64
2023/02/01 10:52:46;;;;;;;2.20;0.80;;;5.40;99.90;;;;;;5028453;28;20025;-64
2023/02/01 10:55:26;;;;;;;7.00;1.20;;;5.40;99.90;;;;;;5031389;28;20033;-64
2023/02/01 10:58:02;;;;;;;4.55;1.15;;;5.40;99.90;;;;;;5044397;28;20025;-64
2023/02/01 11:00:33;;;;;;;4.45;1.33;;;5.50;99.90;;;;;;5031310;28;20036;-64
2023/02/01 11:02:59;;;;;;;3.63;1.20;;;5.60;99.90;;;;;;5045155;28;20040;-64
2023/02/01 11:05:26;;;;;;;7.78;1.42;;;5.70;99.90;;;;;;5037079;28;20071;-64
2023/02/01 11:07:55;;;;;;;6.40;1.38;;;5.80;99.90;;;;;;5044448;28;20025;-64
2023/02/01 11:10:41;;;;;;;6.25;1.48;;;5.80;99.90;;;;;;5031188;28;20413;-64
2023/02/01 11:13:15;;;;;;;2.33;0.98;;;5.90;99.90;;;;;;5036695;28;20060;-64
2023/02/01 11:15:45;;;;;;;7.68;1.60;;;5.80;99.90;;;;;;5031170;28;20033;-64
2023/02/01 11:18:19;;;;;;;4.95;1.20;;;5.80;99.90;;;;;;5031875;28;20028;-64
2023/02/01 11:20:49;;;;;;;2.20;1.20;;;5.80;99.90;;;;;;5050386;28;20036;-64
2023/02/01 11:23:17;;;;;;;5.55;1.25;;;5.80;99.90;;;;;;5046829;28;20021;-63
2023/02/01 11:25:51;;;;;;;4.45;1.30;;;5.90;99.90;;;;;;5031001;28;20051;-64
2023/02/01 11:28:18;;;;;;;6.78;1.10;;;5.90;99.90;;;;;;5030077;28;20056;-63
2023/02/01 11:30:46;;;;;;;4.80;1.30;;;6.00;99.90;;;;;;5050194;28;20075;-64
2023/02/01 11:33:20;;;;;;;7.88;1.67;;;6.20;99.90;;;;;;5046490;28;20025;-64
2023/02/01 11:35:48;;;;;;;8.88;1.50;;;6.30;99.90;;;;;;5030848;28;20468;-64
2023/02/01 11:38:25;;;;;;;4.40;1.40;;;6.30;99.90;;;;;;5030806;28;20033;-63
2023/02/01 11:40:50;;;;;;;3.22;0.82;;;6.40;99.90;;;;;;5030750;28;20041;-64
2023/02/01 11:43:27;;;;;;;3.40;1.30;;;6.40;99.90;;;;;;5030031;28;20103;-63
2023/02/01 11:45:59;;;;;;;4.95;1.50;;;6.50;99.90;;;;;;5029384;28;20017;-64
2023/02/01 11:48:27;;;;;;;4.38;1.67;;;6.50;99.90;;;;;;5029112;28;20432;-64
2023/02/01 11:51:17;;;;;;;6.95;1.55;;;6.50;99.90;;;;;;5050051;28;20485;-63
2023/02/01 11:54:05;;;;;;;7.53;1.88;;;6.60;99.90;;;;;;5030418;28;20106;-64
2023/02/01 11:56:40;;;;;;;6.25;2.33;;;6.70;99.90;;;;;;5028345;28;20022;-64
2023/02/01 11:59:17;;;;;;;5.25;1.60;;;6.70;99.90;;;;;;5030429;28;20207;-64
2023/02/01 12:02:21;;;;;;;6.13;1.90;;;6.80;99.90;;;;;;5028362;28;20030;-63
2023/02/01 12:05:07;;;;;;;11.10;1.77;;;6.90;99.90;;;;;;5030608;28;20078;-63
2023/02/01 12:07:36;;;;;;;;;;;6.90;99.90;;;;;;5048544;28;20036;-63
2023/02/01 12:10:17;;;;;;;6.82;1.70;;;7.00;99.90;;;;;;5030488;28;19909;-64
2023/02/01 12:12:52;;;;;;;5.63;1.55;;;7.10;99.90;;;;;;5035463;28;20132;-64
2023/02/01 12:15:29;;;;;;;5.78;1.80;;;7.30;99.90;;;;;;5030048;28;20033;-63
2023/02/01 12:18:34;;;;;;;6.65;1.98;;;7.30;99.90;;;;;;5043145;28;20033;-63
2023/02/01 12:21:23;;;;;;;8.05;2.22;;;7.30;99.90;;;;;;5029744;28;20034;-64
2023/02/01 12:24:30;;;;;;;11.00;2.35;;;7.20;99.90;;;;;;5029866;28;20083;-64
2023/02/01 12:27:05;;;;;;;7.18;2.22;;;7.10;99.90;;;;;;5027828;28;20025;-64
2023/02/01 12:29:45;;;;;;;7.65;2.20;;;7.10;99.90;;;;;;5029612;28;20056;-63
2023/02/01 12:32:32;;;;;;;5.90;1.77;;;7.20;99.90;;;;;;5027628;28;20021;-63
2023/02/01 12:35:14;;;;;;;7.43;1.85;;;7.20;99.90;;;;;;5029639;28;20090;-63
2023/02/01 12:37:55;;;;;;;8.80;2.33;;;7.20;99.90;;;;;;5040653;28;20096;-63
2023/02/01 12:40:35;;;;;;;6.15;2.03;;;7.20;99.90;;;;;;5028809;28;20071;-64
2023/02/01 12:43:27;;;;;;;12.38;2.75;;;7.10;99.90;;;;;;5030722;28;20061;-64
2023/02/01 12:46:01;;;;;;;5.70;1.45;;;7.10;99.70;;;;;;5029481;28;20029;-64
2023/02/01 12:48:42;;;;;;;7.80;1.92;;;7.10;99.20;;;;;;5046913;28;20563;-64
2023/02/01 12:51:13;;;;;;;8.55;2.25;;;7.10;98.40;;;;;;5026109;28;20091;-63
2023/02/01 12:53:56;;;;;;;8.05;2.13;;;7.00;99.40;;;;;;5029137;28;20025;-63
2023/02/01 12:56:39;;;;;;;8.75;1.90;;;7.00;99.60;;;;;;5027344;28;20029;-63
2023/02/01 12:59:16;;;;;;;8.38;1.80;;;6.90;99.20;;;;;;5029243;28;20021;-63
2023/02/01 13:01:48;;;;;;;6.72;1.67;;;6.80;99.30;;;;;;5025854;28;20448;-64
2023/02/01 13:04:25;;;;;;;10.88;2.78;;;6.80;99.90;;;;;;5029287;28;20025;-63
2023/02/01 13:06:56;;;;;;;5.25;1.80;;;6.70;99.90;;;;;;5024239;28;20086;-64
2023/02/01 13:09:36;;;;;;;5.75;1.75;;;6.60;99.90;;;;;;5028937;28;20031;-64
2023/02/01 13:12:19;;;;;;;7.97;2.13;;;6.50;99.90;;;;;;5026815;28;20113;-63
2023/02/01 13:14:53;;;;;;;14.95;2.85;;;6.40;99.90;;;;;;5048038;28;20108;-60
2023/02/01 13:17:28;;;;;;;4.40;1.30;;;6.20;99.90;;;;;;5027194;28;20030;-61
2023/02/01 13:20:05;;;;;;;3.47;0.95;;;5.90;99.90;;;;;;5028859;28;20057;-60
2023/02/01 13:22:41;;;;;;;4.72;0.88;;;5.50;99.90;;;;;;5034582;28;20065;-60
2023/02/01 13:25:16;;;;;;;0.52;0.32;;;5.30;99.90;;;;;;5029051;28;20031;-61
2023/02/01 13:27:41;;;;;;;2.40;0.47;;;5.10;99.90;;;;;;5033306;28;20025;-60
2023/02/01 13:30:25;;;;;;;0.63;0.50;;;5.00;99.90;;;;;;5047976;28;20776;-60
2023/02/01 13:33:18;;;;;;;0.30;0.20;;;4.80;99.90;;;;;;5041688;28;20033;-61
2023/02/01 13:36:04;;;;;;;0.57;0.55;;;4.70;99.90;;;;;;5028771;28;20389;-61
2023/02/01 13:38:59;;;;;;;6.40;2.28;;;4.60;99.90;;;;;;5046660;28;20049;-61
2023/02/01 13:41:42;;;;;;;2.55;1.63;;;4.60;99.90;;;;;;5026558;28;20063;-61
2023/02/01 13:44:15;;;;;;;1.55;1.27;;;4.60;99.90;;;;;;5028725;28;20022;-61